Time;durP1;ratioP1;P1;durP2;ratioP2;P2;SDS_P1;SDS_P2;PMS_P1;PMS_P2;Temp;Humidity;BMP_temperature;BMP_pressure;BME280_temperature;BME280_humidity;BME280_pressure;Samples;Min_cycle;Max_cycle;Signal;HPM_P1;HPM_P2
2021/10/15 00:01:19;;;;;;;998.97;891.65;;;;;;;;;;5080419;28;20024;-75
2021/10/15 00:03:45;;;;;;;1015.50;907.40;;;;;;;;;;5113292;28;20023;-76
2021/10/15 00:06:11;;;;;;;1005.70;898.17;;;;;;;;;;5105572;28;20035;-75
2021/10/15 00:08:37;;;;;;;1011.80;903.85;;;;;;;;;;5112094;28;20495;-75
2021/10/15 00:11:03;;;;;;;1024.60;915.60;;;;;;;;;;5094131;28;20027;-75
2021/10/15 00:13:29;;;;;;;1010.35;902.22;;;;;;;;;;5093803;28;20075;-75
2021/10/15 00:15:55;;;;;;;1011.47;903.33;;;;;;;;;;5105670;28;20458;-75
2021/10/15 00:18:21;;;;;;;1011.92;904.20;;;;;;;;;;5108353;28;20950;-75
2021/10/15 00:20:47;;;;;;;1019.30;910.88;;;;;;;;;;5111309;28;20106;-76
2021/10/15 00:23:16;;;;;;;998.15;891.28;;;;;;;;;;5107206;28;20038;-74
2021/10/15 00:25:42;;;;;;;1014.13;906.08;;;;;;;;;;5107030;28;20411;-75
2021/10/15 00:28:08;;;;;;;1002.92;895.40;;;;;;;;;;5102422;28;20023;-75
2021/10/15 00:30:34;;;;;;;1009.47;901.60;;;;;;;;;;5087358;28;20126;-75
2021/10/15 00:33:00;;;;;;;1014.05;905.63;;;;;;;;;;5108158;28;20040;-75
2021/10/15 00:35:26;;;;;;;1000.83;893.30;;;;;;;;;;5111531;28;20034;-75
2021/10/15 00:37:52;;;;;;;1001.72;894.13;;;;;;;;;;5106806;28;20074;-75
2021/10/15 00:40:18;;;;;;;997.95;890.08;;;;;;;;;;5103555;28;20032;-75
2021/10/15 00:42:45;;;;;;;1016.10;907.92;;;;;;;;;;5111031;28;20099;-75
2021/10/15 00:45:11;;;;;;;979.25;873.13;;;;;;;;;;5112094;28;20635;-75
2021/10/15 00:47:37;;;;;;;989.38;882.47;;;;;;;;;;5110421;28;20430;-75
2021/10/15 00:50:03;;;;;;;994.63;887.53;;;;;;;;;;5089388;28;20024;-75
2021/10/15 00:52:30;;;;;;;995.70;888.38;;;;;;;;;;5076956;28;20028;-75
2021/10/15 00:54:56;;;;;;;999.83;892.22;;;;;;;;;;5104214;28;20119;-76
2021/10/15 00:57:22;;;;;;;1001.25;893.75;;;;;;;;;;5109093;28;20155;-75
2021/10/15 00:59:48;;;;;;;1008.40;900.50;;;;;;;;;;5110808;28;20035;-75
2021/10/15 01:02:14;;;;;;;1000.50;892.88;;;;;;;;;;5092887;28;20035;-75
2021/10/15 01:04:40;;;;;;;1006.50;898.83;;;;;;;;;;5097887;28;20032;-76
2021/10/15 01:07:06;;;;;;;1005.05;897.22;;;;;;;;;;5094073;28;20036;-75
2021/10/15 01:09:32;;;;;;;1001.65;894.33;;;;;;;;;;5089886;28;20028;-75
2021/10/15 01:11:59;;;;;;;1001.97;894.53;;;;;;;;;;5111768;28;20045;-75
2021/10/15 01:14:25;;;;;;;986.75;880.00;;;;;;;;;;5090885;28;20406;-75
2021/10/15 01:16:51;;;;;;;991.65;884.45;;;;;;;;;;5098666;28;20028;-75
2021/10/15 01:19:17;;;;;;;1006.92;899.00;;;;;;;;;;5086034;28;20028;-75
2021/10/15 01:21:43;;;;;;;1007.72;899.97;;;;;;;;;;5106786;28;20028;-75
2021/10/15 01:24:09;;;;;;;996.13;888.83;;;;;;;;;;5100370;28;20073;-75
2021/10/15 01:26:35;;;;;;;989.65;883.10;;;;;;;;;;5109212;28;20028;-75
2021/10/15 01:29:01;;;;;;;1005.22;897.47;;;;;;;;;;5091395;28;20027;-75
2021/10/15 01:31:27;;;;;;;1012.58;904.65;;;;;;;;;;5095200;28;20057;-74
2021/10/15 01:33:58;;;;;;;1001.83;893.85;;;;;;;;;;5080457;28;20078;-76
2021/10/15 01:36:24;;;;;;;998.13;890.78;;;;;;;;;;5109637;28;20071;-75
2021/10/15 01:38:51;;;;;;;1000.08;892.65;;;;;;;;;;5107310;28;20032;-75
2021/10/15 01:41:17;;;;;;;1000.63;892.95;;;;;;;;;;5072768;28;20414;-75
2021/10/15 01:43:43;;;;;;;997.92;890.60;;;;;;;;;;5107612;28;20055;-75
2021/10/15 01:46:10;;;;;;;1004.38;896.95;;;;;;;;;;5104831;28;20027;-75
2021/10/15 01:48:35;;;;;;;997.90;890.75;;;;;;;;;;5091210;28;20023;-75
2021/10/15 01:51:01;;;;;;;988.97;882.13;;;;;;;;;;5092827;28;20511;-75
2021/10/15 01:53:27;;;;;;;986.90;879.00;;;;;;;;;;5108537;28;21894;-75
2021/10/15 01:55:53;;;;;;;981.95;875.60;;;;;;;;;;5109176;28;20483;-75
2021/10/15 01:58:19;;;;;;;999.03;891.38;;;;;;;;;;5110204;28;20354;-76
2021/10/15 02:00:49;;;;;;;996.90;889.40;;;;;;;;;;5087522;28;20020;-75
2021/10/15 02:03:15;;;;;;;979.47;873.13;;;;;;;;;;5098238;28;20028;-75
2021/10/15 02:05:41;;;;;;;1007.40;899.53;;;;;;;;;;5109327;28;20505;-74
2021/10/15 02:08:07;;;;;;;960.72;855.20;;;;;;;;;;5092504;28;20032;-76
2021/10/15 02:13:38;;;;;;;963.33;857.40;;;;;;;;;;5222118;22;20140;-77
2021/10/15 02:16:05;;;;;;;945.63;837.58;;;;;;;;;;5052412;28;20495;-77
2021/10/15 02:18:31;;;;;;;992.67;885.55;;;;;;;;;;5051633;28;20063;-75
2021/10/15 02:20:57;;;;;;;998.25;890.92;;;;;;;;;;5068984;28;20545;-75
2021/10/15 02:23:23;;;;;;;980.10;873.13;;;;;;;;;;5053092;28;20029;-74
2021/10/15 02:25:49;;;;;;;989.17;882.22;;;;;;;;;;5067893;28;20404;-75
2021/10/15 02:28:15;;;;;;;988.40;881.38;;;;;;;;;;5052585;28;20033;-79
2021/10/15 02:30:41;;;;;;;963.35;857.72;;;;;;;;;;5068650;28;20028;-77
2021/10/15 02:33:07;;;;;;;985.22;878.33;;;;;;;;;;5052362;28;20085;-75
2021/10/15 02:35:33;;;;;;;977.95;871.08;;;;;;;;;;5050662;28;20032;-78
2021/10/15 02:38:02;;;;;;;973.17;866.83;;;;;;;;;;5048422;28;20028;-77
2021/10/15 02:40:28;;;;;;;974.75;868.25;;;;;;;;;;5065671;28;20745;-77
2021/10/15 02:42:55;;;;;;;985.50;878.72;;;;;;;;;;5069436;28;20077;-76
2021/10/15 02:45:21;;;;;;;957.15;851.80;;;;;;;;;;5047651;28;20070;-76
2021/10/15 02:47:47;;;;;;;997.33;890.20;;;;;;;;;;5051447;28;20024;-75
2021/10/15 02:50:13;;;;;;;972.95;867.05;;;;;;;;;;5049713;28;20488;-77
2021/10/15 02:52:39;;;;;;;988.70;881.83;;;;;;;;;;5052173;28;20201;-77
2021/10/15 02:55:05;;;;;;;985.47;878.83;;;;;;;;;;5067275;28;20724;-75
2021/10/15 02:57:31;;;;;;;1004.55;897.15;;;;;;;;;;5069909;28;20103;-74
2021/10/15 02:59:57;;;;;;;1006.95;899.08;;;;;;;;;;5047440;28;20476;-76
2021/10/15 03:02:23;;;;;;;1011.72;903.58;;;;;;;;;;5046455;28;20035;-76
2021/10/15 03:04:49;;;;;;;1006.00;898.33;;;;;;;;;;5065426;28;20098;-76
2021/10/15 03:07:15;;;;;;;987.75;881.17;;;;;;;;;;5037902;28;20029;-78
2021/10/15 03:09:41;;;;;;;987.10;879.83;;;;;;;;;;5057631;28;20021;-77
2021/10/15 03:12:07;;;;;;;1005.33;897.70;;;;;;;;;;5061730;28;20119;-77
2021/10/15 03:14:33;;;;;;;1004.20;896.65;;;;;;;;;;5064955;28;20041;-76
2021/10/15 03:16:59;;;;;;;1004.45;896.92;;;;;;;;;;5046881;28;20020;-76
2021/10/15 03:19:25;;;;;;;1004.55;897.10;;;;;;;;;;5043496;28;20029;-76
2021/10/15 03:21:51;;;;;;;1006.83;899.13;;;;;;;;;;5048017;28;20020;-77
2021/10/15 03:24:17;;;;;;;1001.97;894.65;;;;;;;;;;5063432;28;20043;-77
2021/10/15 03:26:43;;;;;;;1007.55;899.83;;;;;;;;;;5065381;28;20048;-76
2021/10/15 03:29:09;;;;;;;1016.20;908.47;;;;;;;;;;5040517;28;20473;-77
2021/10/15 03:31:36;;;;;;;1014.05;905.85;;;;;;;;;;5033153;28;20020;-76
2021/10/15 03:34:02;;;;;;;1010.40;902.33;;;;;;;;;;5060503;28;20416;-76
2021/10/15 03:36:28;;;;;;;1002.30;894.88;;;;;;;;;;5041843;28;20025;-76
2021/10/15 03:38:54;;;;;;;1013.85;906.00;;;;;;;;;;5040352;28;20035;-76
2021/10/15 03:41:20;;;;;;;1003.03;895.45;;;;;;;;;;5055544;28;20082;-76
2021/10/15 03:43:46;;;;;;;1011.25;903.30;;;;;;;;;;5037331;28;20033;-75
2021/10/15 03:46:12;;;;;;;1013.47;905.58;;;;;;;;;;5059800;28;20060;-76
2021/10/15 03:48:38;;;;;;;1010.70;902.83;;;;;;;;;;5060149;28;20032;-76
2021/10/15 03:51:04;;;;;;;991.75;884.80;;;;;;;;;;5044549;28;20063;-76
2021/10/15 03:53:30;;;;;;;1009.05;901.20;;;;;;;;;;5059917;28;20044;-78
2021/10/15 03:55:56;;;;;;;1003.22;895.13;;;;;;;;;;5044785;28;20044;-77
2021/10/15 03:58:22;;;;;;;1002.08;894.55;;;;;;;;;;5044654;28;20025;-76
2021/10/15 04:00:48;;;;;;;1006.13;898.30;;;;;;;;;;5045735;28;20036;-77
2021/10/15 04:03:14;;;;;;;1004.40;896.83;;;;;;;;;;5063040;28;20031;-78
2021/10/15 04:05:40;;;;;;;1000.33;892.63;;;;;;;;;;5045941;28;20712;-77
2021/10/15 04:08:06;;;;;;;989.47;882.70;;;;;;;;;;5061644;28;20029;-75
2021/10/15 04:10:32;;;;;;;1001.05;893.42;;;;;;;;;;5044715;28;20048;-76
2021/10/15 04:12:58;;;;;;;1005.80;898.03;;;;;;;;;;5045016;28;20063;-76
2021/10/15 04:15:24;;;;;;;1017.08;908.90;;;;;;;;;;5061962;28;20506;-77
2021/10/15 04:17:50;;;;;;;996.83;889.67;;;;;;;;;;5044620;28;20392;-76
2021/10/15 04:20:16;;;;;;;1005.08;897.58;;;;;;;;;;5045830;28;20073;-76
2021/10/15 04:22:42;;;;;;;1011.65;903.67;;;;;;;;;;5045399;28;20107;-77
2021/10/15 04:25:08;;;;;;;988.85;882.35;;;;;;;;;;5042873;28;20038;-77
2021/10/15 04:27:34;;;;;;;972.25;866.60;;;;;;;;;;5045738;28;20036;-76
2021/10/15 04:30:00;;;;;;;1000.90;893.33;;;;;;;;;;5062950;28;20033;-77
2021/10/15 04:32:26;;;;;;;997.78;890.42;;;;;;;;;;5061735;28;20038;-79
2021/10/15 04:34:52;;;;;;;1001.50;893.50;;;;;;;;;;5063563;28;20465;-76
2021/10/15 04:37:18;;;;;;;1007.47;899.72;;;;;;;;;;5062084;28;20024;-76
2021/10/15 04:39:44;;;;;;;989.03;882.25;;;;;;;;;;5059231;28;20032;-77
2021/10/15 04:42:10;;;;;;;994.85;887.55;;;;;;;;;;5058796;28;20392;-76
2021/10/15 04:44:36;;;;;;;1001.28;893.75;;;;;;;;;;5061025;28;20035;-77
2021/10/15 04:47:02;;;;;;;1003.05;895.42;;;;;;;;;;5044639;28;20025;-77
2021/10/15 04:49:28;;;;;;;994.80;888.25;;;;;;;;;;5061722;28;20028;-76
2021/10/15 04:51:54;;;;;;;1016.50;908.17;;;;;;;;;;5044703;28;20386;-77
2021/10/15 04:54:20;;;;;;;1012.15;904.38;;;;;;;;;;5057341;28;20067;-79
2021/10/15 04:56:46;;;;;;;1022.08;913.65;;;;;;;;;;5065227;28;20039;-78
2021/10/15 04:59:12;;;;;;;1008.08;900.83;;;;;;;;;;5062002;28;20665;-77
2021/10/15 05:01:38;;;;;;;1006.25;898.60;;;;;;;;;;5047258;28;20181;-77
2021/10/15 05:04:04;;;;;;;1021.40;913.13;;;;;;;;;;5067147;28;20024;-77
2021/10/15 05:06:30;;;;;;;1010.67;902.92;;;;;;;;;;5063345;28;20028;-76
2021/10/15 05:09:13;;;;;;;1011.60;903.95;;;;;;;;;;5059206;28;20462;-77
2021/10/15 05:11:41;;;;;;;1018.22;910.05;;;;;;;;;;5063151;28;20040;-77
2021/10/15 05:14:07;;;;;;;1011.53;903.60;;;;;;;;;;5041599;28;20114;-77
2021/10/15 05:16:33;;;;;;;998.05;891.03;;;;;;;;;;5040883;28;20426;-77
2021/10/15 05:18:59;;;;;;;989.58;883.08;;;;;;;;;;5045966;28;20086;-78
2021/10/15 05:21:25;;;;;;;1004.80;897.35;;;;;;;;;;5045385;28;20029;-76
2021/10/15 05:23:51;;;;;;;1003.90;896.47;;;;;;;;;;5045457;28;20334;-77
2021/10/15 05:26:17;;;;;;;1011.22;902.88;;;;;;;;;;5064496;28;20109;-77
2021/10/15 05:28:43;;;;;;;1014.60;906.53;;;;;;;;;;5042669;28;20453;-78
2021/10/15 05:31:09;;;;;;;1025.50;916.95;;;;;;;;;;5043825;28;20071;-77
2021/10/15 05:33:35;;;;;;;1019.03;910.90;;;;;;;;;;5036881;28;20511;-78
2021/10/15 05:36:01;;;;;;;1013.00;905.17;;;;;;;;;;5065625;28;20029;-77
2021/10/15 05:38:27;;;;;;;1023.53;915.08;;;;;;;;;;5049603;28;20036;-78
2021/10/15 05:40:53;;;;;;;1015.55;907.55;;;;;;;;;;5045071;28;20024;-77
2021/10/15 05:43:19;;;;;;;1012.90;905.33;;;;;;;;;;5061165;28;20040;-77
2021/10/15 05:45:45;;;;;;;1011.45;903.75;;;;;;;;;;5043283;28;20036;-78
2021/10/15 05:48:11;;;;;;;1022.85;914.47;;;;;;;;;;5064163;28;20224;-78
2021/10/15 05:50:38;;;;;;;1019.65;911.35;;;;;;;;;;5048956;28;20034;-77
2021/10/15 05:53:10;;;;;;;1002.55;895.35;;;;;;;;;;5067439;28;20035;-78
2021/10/15 06:01:05;;;;;;;994.58;887.67;;;;;;;;;;5067000;28;20506;-80
2021/10/15 06:03:31;;;;;;;1017.00;909.28;;;;;;;;;;5049210;28;20025;-79
2021/10/15 06:16:36;;;;;;;1021.88;913.55;;;;;;;;;;5068869;28;20573;-79
2021/10/15 06:19:11;;;;;;;973.90;868.30;;;;;;;;;;5050115;28;20028;-80
2021/10/15 06:21:38;;;;;;;963.80;858.45;;;;;;;;;;5068437;28;20081;-80
2021/10/15 06:24:04;;;;;;;962.38;856.97;;;;;;;;;;5049071;28;20047;-77
2021/10/15 06:26:30;;;;;;;976.30;869.92;;;;;;;;;;5051015;28;20528;-78
2021/10/15 06:28:59;;;;;;;968.10;862.47;;;;;;;;;;5050452;28;20036;-80
2021/10/15 06:31:29;;;;;;;961.65;855.90;;;;;;;;;;5050015;28;20021;-78
2021/10/15 06:33:57;;;;;;;948.22;840.88;;;;;;;;;;5067765;28;20033;-79
2021/10/15 06:36:23;;;;;;;947.97;837.53;;;;;;;;;;5049737;28;20480;-79
2021/10/15 06:38:49;;;;;;;951.58;839.78;;;;;;;;;;5040201;28;20021;-78
2021/10/15 06:41:15;;;;;;;929.35;785.70;;;;;;;;;;5029508;28;20028;-79
2021/10/15 06:43:41;;;;;;;940.38;807.42;;;;;;;;;;5029653;28;20371;-80
2021/10/15 06:46:07;;;;;;;943.10;811.83;;;;;;;;;;5030058;28;20017;-80
2021/10/15 06:48:33;;;;;;;952.70;835.42;;;;;;;;;;5030366;28;20114;-80
2021/10/15 06:50:59;;;;;;;943.65;813.42;;;;;;;;;;5030397;28;20055;-78
2021/10/15 06:53:26;;;;;;;929.85;776.78;;;;;;;;;;5036103;28;20245;-78
2021/10/15 06:55:52;;;;;;;944.88;817.80;;;;;;;;;;5068623;28;20039;-78
2021/10/15 06:58:18;;;;;;;944.20;813.90;;;;;;;;;;5050736;28;20024;-80
2021/10/15 07:00:44;;;;;;;924.03;764.47;;;;;;;;;;5049541;28;20078;-79
2021/10/15 07:03:14;;;;;;;948.72;824.78;;;;;;;;;;5050485;28;20021;-79
2021/10/15 07:05:40;;;;;;;936.92;793.33;;;;;;;;;;5065659;28;20064;-79
2021/10/15 07:08:06;;;;;;;948.28;820.13;;;;;;;;;;5050852;28;20135;-78
2021/10/15 07:10:32;;;;;;;957.00;844.63;;;;;;;;;;5049793;28;20119;-81
2021/10/15 07:12:58;;;;;;;952.72;833.85;;;;;;;;;;5049997;28;20392;-79
2021/10/15 07:15:24;;;;;;;968.25;860.85;;;;;;;;;;5050175;28;20024;-80
2021/10/15 07:17:50;;;;;;;957.30;848.53;;;;;;;;;;5047483;28;20093;-80
2021/10/15 07:20:16;;;;;;;950.58;839.00;;;;;;;;;;5042134;28;20854;-80
2021/10/15 07:22:42;;;;;;;957.30;849.28;;;;;;;;;;5046506;28;20019;-79
2021/10/15 07:25:09;;;;;;;954.03;843.90;;;;;;;;;;5043261;28;20028;-80
2021/10/15 07:27:35;;;;;;;987.95;880.03;;;;;;;;;;5052274;28;20392;-79
2021/10/15 07:30:04;;;;;;;958.70;849.72;;;;;;;;;;5048753;28;20033;-80
2021/10/15 07:32:30;;;;;;;954.60;838.63;;;;;;;;;;5058938;28;20017;-81
2021/10/15 07:34:56;;;;;;;947.92;830.00;;;;;;;;;;5045646;28;20048;-78
2021/10/15 07:37:22;;;;;;;955.17;845.03;;;;;;;;;;5043042;28;20025;-80
2021/10/15 07:39:48;;;;;;;965.75;859.13;;;;;;;;;;5056431;28;20477;-80
2021/10/15 07:42:14;;;;;;;945.85;826.47;;;;;;;;;;5046160;28;20111;-81
2021/10/15 07:44:40;;;;;;;965.40;858.40;;;;;;;;;;5046740;28;20530;-79
2021/10/15 07:47:06;;;;;;;961.80;852.47;;;;;;;;;;5043722;28;20037;-79
2021/10/15 07:49:32;;;;;;;981.20;873.65;;;;;;;;;;5045130;28;20035;-80
2021/10/15 07:51:58;;;;;;;957.40;848.08;;;;;;;;;;5040622;28;20116;-81
2021/10/15 07:54:24;;;;;;;967.47;860.78;;;;;;;;;;5040950;28;20033;-80
2021/10/15 07:56:50;;;;;;;970.88;863.88;;;;;;;;;;5044183;28;20135;-80
2021/10/15 07:59:16;;;;;;;966.28;859.80;;;;;;;;;;5059539;28;20044;-81
2021/10/15 08:01:44;;;;;;;967.28;860.70;;;;;;;;;;5045179;28;20111;-80
2021/10/15 08:04:10;;;;;;;988.45;880.90;;;;;;;;;;5038800;28;20063;-81
2021/10/15 08:06:36;;;;;;;962.10;855.45;;;;;;;;;;5045682;28;20083;-78
2021/10/15 08:09:02;;;;;;;994.13;886.35;;;;;;;;;;5039434;28;20170;-80
2021/10/15 08:11:28;;;;;;;996.90;888.53;;;;;;;;;;5041443;28;20032;-80
2021/10/15 08:13:54;;;;;;;993.15;885.33;;;;;;;;;;5032207;28;20053;-79
2021/10/15 08:16:21;;;;;;;975.08;867.70;;;;;;;;;;5034782;28;20025;-80
2021/10/15 08:18:48;;;;;;;995.45;887.42;;;;;;;;;;5040813;28;20029;-79
2021/10/15 08:21:15;;;;;;;1003.63;895.15;;;;;;;;;;5034787;28;20036;-81
2021/10/15 08:23:43;;;;;;;995.58;887.67;;;;;;;;;;5032758;28;20033;-79
2021/10/15 08:26:09;;;;;;;970.28;864.05;;;;;;;;;;5034031;28;20033;-78
2021/10/15 08:28:35;;;;;;;988.75;881.60;;;;;;;;;;5043130;28;20032;-80
2021/10/15 08:31:02;;;;;;;983.83;876.97;;;;;;;;;;5036237;28;20021;-79
2021/10/15 08:33:29;;;;;;;1017.88;909.15;;;;;;;;;;5033933;28;20100;-79
2021/10/15 08:35:55;;;;;;;997.65;890.00;;;;;;;;;;5040755;28;20104;-81
2021/10/15 08:38:21;;;;;;;1015.75;907.40;;;;;;;;;;5032849;28;20029;-80
2021/10/15 08:40:48;;;;;;;1020.90;912.28;;;;;;;;;;5032422;28;20512;-80
2021/10/15 08:43:14;;;;;;;1012.13;904.08;;;;;;;;;;5036799;28;20033;-79
2021/10/15 08:45:40;;;;;;;1038.05;928.83;;;;;;;;;;5039970;28;20041;-81
2021/10/15 08:48:06;;;;;;;1022.53;914.08;;;;;;;;;;5032286;28;20489;-80
2021/10/15 08:50:33;;;;;;;1038.78;929.47;;;;;;;;;;5040629;28;20098;-80
2021/10/15 08:52:59;;;;;;;1040.57;931.58;;;;;;;;;;5046720;28;20037;-80
2021/10/15 08:55:25;;;;;;;1068.15;958.10;;;;;;;;;;5043282;28;20029;-80
2021/10/15 08:57:52;;;;;;;1099.00;987.75;;;;;;;;;;5035314;28;20028;-79
2021/10/15 09:00:25;;;;;;;1102.78;991.50;;;;;;;;;;5040055;28;20025;-78
2021/10/15 09:03:10;;;;;;;1101.22;988.60;;;;;;;;;;5041135;28;20025;-81
2021/10/15 09:05:36;;;;;;;1073.50;963.92;;;;;;;;;;5027789;28;20075;-80
2021/10/15 09:08:03;;;;;;;1102.40;990.97;;;;;;;;;;5029405;28;20408;-79
2021/10/15 09:10:33;;;;;;;1091.05;980.30;;;;;;;;;;5046099;28;20025;-80
2021/10/15 09:13:10;;;;;;;1085.10;974.78;;;;;;;;;;5040849;28;20451;-80
2021/10/15 09:15:37;;;;;;;1076.43;966.05;;;;;;;;;;5040286;28;20156;-82
2021/10/15 09:18:13;;;;;;;1077.95;967.83;;;;;;;;;;5037844;28;20455;-81
2021/10/15 09:20:48;;;;;;;1062.30;952.78;;;;;;;;;;5044328;28;20032;-80
2021/10/15 09:23:15;;;;;;;1083.80;973.00;;;;;;;;;;5047904;28;20105;-81
2021/10/15 09:25:46;;;;;;;1076.88;966.60;;;;;;;;;;5043699;28;20025;-82
2021/10/15 09:28:13;;;;;;;1071.63;961.65;;;;;;;;;;5049701;28;20056;-80
2021/10/15 09:30:41;;;;;;;1051.47;942.92;;;;;;;;;;5033189;28;20465;-81
2021/10/15 09:33:08;;;;;;;1039.70;931.05;;;;;;;;;;4990434;28;20144;-81
2021/10/15 09:35:34;;;;;;;1040.47;931.58;;;;;;;;;;4990795;28;20665;-82
2021/10/15 09:38:05;;;;;;;1020.50;913.28;;;;;;;;;;4991042;28;20038;-81
2021/10/15 09:40:39;;;;;;;1035.80;927.03;;;;;;;;;;5003845;28;20022;-81
2021/10/15 09:43:06;;;;;;;1023.42;915.30;;;;;;;;;;5010439;28;20029;-81
2021/10/15 09:45:39;;;;;;;1031.32;922.53;;;;;;;;;;5006551;28;20030;-82
2021/10/15 09:48:19;;;;;;;1025.07;916.70;;;;;;;;;;5015898;28;20057;-81
2021/10/15 09:50:45;;;;;;;995.63;888.97;;;;;;;;;;5008723;28;20069;-82
2021/10/15 09:53:12;;;;;;;1005.42;898.03;;;;;;;;;;5008720;28;20033;-79
2021/10/15 09:55:42;;;;;;;1022.72;914.17;;;;;;;;;;5002710;28;20065;-80
2021/10/15 09:58:28;;;;;;;1018.78;910.75;;;;;;;;;;4989684;28;20041;-80
2021/10/15 10:00:54;;;;;;;999.63;892.92;;;;;;;;;;5005214;28;20282;-80
2021/10/15 10:03:22;;;;;;;1036.40;927.85;;;;;;;;;;5011511;28;20068;-80
2021/10/15 10:05:49;;;;;;;1037.47;928.55;;;;;;;;;;5038337;28;20032;-82
2021/10/15 10:08:15;;;;;;;1035.15;926.22;;;;;;;;;;5026594;28;20025;-81
2021/10/15 10:10:42;;;;;;;1016.65;908.83;;;;;;;;;;5041573;28;20025;-80
2021/10/15 10:13:09;;;;;;;1012.85;904.83;;;;;;;;;;5030609;28;20036;-78
2021/10/15 10:15:37;;;;;;;1022.63;913.95;;;;;;;;;;5048955;28;20021;-78
2021/10/15 10:18:27;;;;;;;1024.80;916.40;;;;;;;;;;5039125;28;20124;-79
2021/10/15 10:21:03;;;;;;;993.13;886.22;;;;;;;;;;5045977;28;20024;-80
2021/10/15 10:23:32;;;;;;;1030.38;921.38;;;;;;;;;;5050066;28;20017;-78
2021/10/15 10:25:59;;;;;;;1036.38;927.35;;;;;;;;;;5039193;28;20030;-78
2021/10/15 10:28:27;;;;;;;1045.00;936.17;;;;;;;;;;5038392;28;20043;-76
2021/10/15 10:30:54;;;;;;;1053.43;944.00;;;;;;;;;;5032082;28;20361;-78
2021/10/15 10:33:21;;;;;;;1057.18;947.53;;;;;;;;;;5026297;28;20025;-77
2021/10/15 10:35:48;;;;;;;1051.80;942.45;;;;;;;;;;5048706;28;20090;-80
2021/10/15 10:38:20;;;;;;;1060.72;950.88;;;;;;;;;;5049098;28;20021;-77
2021/10/15 10:41:02;;;;;;;1036.18;927.28;;;;;;;;;;5050189;28;20032;-83
2021/10/15 10:43:27;;;;;;;1040.63;931.53;;;;;;;;;;5065517;28;20083;-76
2021/10/15 10:46:10;;;;;;;1046.43;937.15;;;;;;;;;;5048931;28;20118;-76
2021/10/15 10:48:52;;;;;;;1040.65;931.58;;;;;;;;;;5033804;28;20039;-79
2021/10/15 10:51:18;;;;;;;1032.35;923.47;;;;;;;;;;5055544;28;20064;-77
2021/10/15 10:54:03;;;;;;;1041.90;932.85;;;;;;;;;;5054297;28;20327;-79
2021/10/15 10:56:51;;;;;;;1037.03;928.10;;;;;;;;;;5028109;28;20032;-79
2021/10/15 10:59:21;;;;;;;1030.72;921.97;;;;;;;;;;5051854;28;20044;-77
2021/10/15 11:01:52;;;;;;;1033.05;924.03;;;;;;;;;;5044477;28;20473;-78
2021/10/15 11:04:35;;;;;;;1032.45;923.75;;;;;;;;;;5040167;28;20120;-79
2021/10/15 11:07:02;;;;;;;1039.35;930.47;;;;;;;;;;5048618;28;20047;-78
2021/10/15 11:09:48;;;;;;;1029.68;921.28;;;;;;;;;;5064553;28;20186;-78
2021/10/15 11:12:16;;;;;;;1041.28;932.03;;;;;;;;;;5043932;28;20126;-78
2021/10/15 11:14:51;;;;;;;1043.90;934.67;;;;;;;;;;5034119;28;20053;-79
2021/10/15 11:17:17;;;;;;;1036.55;927.90;;;;;;;;;;5045113;28;20112;-77
2021/10/15 11:19:45;;;;;;;1049.47;940.22;;;;;;;;;;5028517;28;20043;-79
2021/10/15 11:22:11;;;;;;;1059.28;949.90;;;;;;;;;;5028509;28;20018;-79
2021/10/15 11:24:37;;;;;;;1078.03;967.50;;;;;;;;;;5030606;28;20481;-77
2021/10/15 11:27:17;;;;;;;1066.20;956.63;;;;;;;;;;5048597;28;20032;-77
2021/10/15 11:29:50;;;;;;;1068.70;958.75;;;;;;;;;;5043634;28;20026;-79
2021/10/15 11:32:28;;;;;;;1061.10;951.60;;;;;;;;;;5027997;28;20073;-78
2021/10/15 11:35:04;;;;;;;1067.88;957.88;;;;;;;;;;5032015;28;20026;-79
2021/10/15 11:37:43;;;;;;;1061.82;951.90;;;;;;;;;;5043164;28;20110;-76
2021/10/15 11:40:29;;;;;;;1066.75;956.60;;;;;;;;;;5026974;28;20037;-78
2021/10/15 11:42:56;;;;;;;1058.10;948.40;;;;;;;;;;5042757;28;20148;-79
2021/10/15 11:45:22;;;;;;;1056.63;947.08;;;;;;;;;;5014529;28;20036;-78
2021/10/15 11:47:58;;;;;;;1051.75;942.05;;;;;;;;;;5039088;28;20452;-79
2021/10/15 11:50:44;;;;;;;1045.70;936.70;;;;;;;;;;5027539;28;20161;-76
2021/10/15 11:53:11;;;;;;;1052.82;943.40;;;;;;;;;;5026569;28;20709;-78
2021/10/15 11:55:38;;;;;;;1059.70;950.08;;;;;;;;;;5025985;28;20029;-77
2021/10/15 11:58:22;;;;;;;1057.57;948.05;;;;;;;;;;5010267;28;20549;-81
2021/10/15 12:01:03;;;;;;;1055.45;946.13;;;;;;;;;;5026968;28;20049;-83
2021/10/15 12:03:30;;;;;;;1043.78;934.63;;;;;;;;;;5033047;28;20029;-80
2021/10/15 12:05:57;;;;;;;1044.88;935.72;;;;;;;;;;5038472;28;20468;-76
2021/10/15 12:08:24;;;;;;;1039.13;930.35;;;;;;;;;;5028993;28;20508;-78
2021/10/15 12:10:50;;;;;;;1028.35;920.20;;;;;;;;;;5031795;28;20021;-78
2021/10/15 12:13:16;;;;;;;1037.35;928.47;;;;;;;;;;5047138;28;20023;-79
2021/10/15 12:15:42;;;;;;;1040.38;931.63;;;;;;;;;;5035879;28;20104;-77
2021/10/15 12:18:09;;;;;;;1042.53;933.60;;;;;;;;;;5040589;28;20513;-77
2021/10/15 12:20:35;;;;;;;1038.53;929.83;;;;;;;;;;5049293;28;20050;-79
2021/10/15 12:23:05;;;;;;;1037.95;929.00;;;;;;;;;;5047383;28;20032;-78
2021/10/15 12:25:31;;;;;;;1034.22;925.45;;;;;;;;;;5041171;28;20047;-79
2021/10/15 12:27:58;;;;;;;1041.30;932.13;;;;;;;;;;5061521;28;20029;-80
2021/10/15 12:30:25;;;;;;;1042.75;933.70;;;;;;;;;;5031887;28;20350;-80
2021/10/15 12:32:52;;;;;;;1050.57;940.95;;;;;;;;;;5037179;28;20059;-78
2021/10/15 12:35:24;;;;;;;1043.88;934.70;;;;;;;;;;5054135;28;20024;-78
2021/10/15 12:37:51;;;;;;;1054.82;945.17;;;;;;;;;;5049535;28;20024;-78
2021/10/15 12:40:24;;;;;;;1048.03;938.80;;;;;;;;;;5064557;28;20495;-78
2021/10/15 12:43:09;;;;;;;1045.82;936.60;;;;;;;;;;5046075;28;20025;-77
2021/10/15 12:45:40;;;;;;;1051.20;941.85;;;;;;;;;;5047593;28;20032;-78
2021/10/15 12:48:06;;;;;;;1037.93;928.90;;;;;;;;;;5066744;28;20039;-78
2021/10/15 12:50:34;;;;;;;1042.80;933.53;;;;;;;;;;5066955;28;20035;-81
2021/10/15 12:53:10;;;;;;;1035.78;927.08;;;;;;;;;;5038910;28;20091;-78
2021/10/15 12:55:36;;;;;;;1032.35;923.83;;;;;;;;;;5061712;28;20036;-79
2021/10/15 12:58:06;;;;;;;1037.50;928.85;;;;;;;;;;5038023;28;20620;-76
2021/10/15 13:00:45;;;;;;;1040.15;931.15;;;;;;;;;;5063102;28;20112;-79
2021/10/15 13:03:11;;;;;;;1037.38;928.63;;;;;;;;;;5047680;28;20108;-77
2021/10/15 13:05:37;;;;;;;1036.45;927.80;;;;;;;;;;5035107;28;20706;-79
2021/10/15 13:08:03;;;;;;;1025.75;917.55;;;;;;;;;;5042133;28;20061;-79
2021/10/15 13:10:30;;;;;;;1040.82;931.88;;;;;;;;;;5045783;28;20157;-79
2021/10/15 13:12:59;;;;;;;1043.97;935.00;;;;;;;;;;5058136;28;20112;-79
2021/10/15 13:15:27;;;;;;;1040.50;931.65;;;;;;;;;;5049340;28;20276;-79
2021/10/15 13:17:53;;;;;;;1032.47;924.08;;;;;;;;;;5066379;28;20033;-78
2021/10/15 13:20:25;;;;;;;1043.03;933.92;;;;;;;;;;5067859;28;20025;-78
2021/10/15 13:22:51;;;;;;;1036.38;927.40;;;;;;;;;;5049531;28;20028;-77
2021/10/15 13:25:17;;;;;;;1045.72;936.78;;;;;;;;;;5064077;28;20511;-80
2021/10/15 13:27:44;;;;;;;1039.25;930.35;;;;;;;;;;5062603;28;20647;-80
2021/10/15 13:30:11;;;;;;;1057.95;948.28;;;;;;;;;;5057063;28;20113;-80
2021/10/15 13:32:38;;;;;;;1035.88;926.95;;;;;;;;;;5048660;28;20025;-80
2021/10/15 13:35:08;;;;;;;1028.93;920.28;;;;;;;;;;5044683;28;20115;-80
2021/10/15 13:37:47;;;;;;;1039.15;930.17;;;;;;;;;;5048384;28;20473;-80
2021/10/15 13:40:17;;;;;;;1036.00;927.20;;;;;;;;;;5046870;28;20025;-80
2021/10/15 13:43:04;;;;;;;1035.38;926.42;;;;;;;;;;5048037;28;20451;-80
2021/10/15 13:50:46;;;;;;;1011.97;903.72;;;;;;;;;;5064452;28;20098;-81
2021/10/15 13:53:12;;;;;;;1028.82;919.95;;;;;;;;;;5049644;28;20388;-83
2021/10/15 13:55:49;;;;;;;1016.67;908.33;;;;;;;;;;5045863;28;20468;-81
2021/10/15 13:58:21;;;;;;;1021.45;912.88;;;;;;;;;;5045287;28;20028;-78
2021/10/15 14:00:49;;;;;;;1009.67;901.85;;;;;;;;;;5047914;28;20461;-79
2021/10/15 14:03:41;;;;;;;1019.78;911.38;;;;;;;;;;5029388;28;20028;-79
2021/10/15 14:06:05;;;;;;;1016.70;908.30;;;;;;;;;;5065231;28;20139;-80
2021/10/15 14:08:31;;;;;;;1034.05;925.00;;;;;;;;;;5049121;28;20128;-77
2021/10/15 14:10:58;;;;;;;1028.72;919.72;;;;;;;;;;5043015;28;20041;-77
2021/10/15 14:13:24;;;;;;;1027.07;918.30;;;;;;;;;;5047543;28;20487;-78